메인 페이지
METAR-TAF:

METAR-TAF

공항 :

Hattiesburg-Laurel Regional Airport

Hattiesburg / 로럴, 미시시피, 미국

위도: 31-28N, 경도: 089-20W, 고도: 91m

현재 날씨관측

예보는 20분 전, 18:34시(UTC)에 발표되었습니다.
8kt
온도 13°C
습도 100%
기압 1015 hPa
시정: 11.3km
고도 400ft 상공 흐림
시계 내 뇌우, 비

METAR: KPIB 121834Z AUTO 36008KT 7SM VCTS RA OVC004 13/13 A2996 RMK AO2 LTG DSNT SW-N TSB32 CIG 002V007 P0001

시각: 12:54 (18:54 UTC)

예보

예보는 1 시간 14분 전, 17:40시(UTC)에 발표되었습니다.
예보 대상 시간: 12일 18시부터 13일 18시까지 (UTC)
북동6kt
시정: 9.7km
고도 500ft 상공 흐림, 적란운.
비, 시계 내 뇌우
일시적
12일 18시부터 12일 19시까지 (UTC)
시정: 3.2km
뇌우, 강한비
12일 2000시부터 (UTC)
8kt
시정: 9.7km
고도 500ft 상공 흐림
소나기
13일 1300시부터 (UTC)
15kt
시정: 9.7km
고도 500ft 상공 흐림
약한이슬비, 박무

TAF: KPIB 121740Z 1218/1318 05006KT 6SM RA VCTS OVC005CB TEMPO 1218/1219 2SM +TSRA FM122000 36008KT 6SM SHRA OVC005 FM131300 35015KT 6SM -DZ BR OVC005

4,000개 이상의 공항 관측 자료 및 예보 (METAR 및 TAF 보고).

지도상에서 검색 가능한 기상관측소가 노란 점과 빨간 점으로 표시되어 있습니다.

기상관측소 명을 보려면 표시 위로 마우스를 이동하세요.

날씨 관측과 예보를 보려면 클릭하세요.

지도 변경 : 확대하려면 엑스 표시가 있는 녹색 버튼, 축소하려면 빼기 표시가 있는 녹색 버튼, 다음 페이지의 지도를 보려면 녹색 화살표를 클릭하세요.


METAR-TAF: